createdAt,value
2023-05-13T00:00:54.242Z,565.00
2023-05-13T00:01:54.217Z,567.00
2023-05-13T00:02:54.322Z,567.00
2023-05-13T00:03:54.296Z,564.00
2023-05-13T00:04:54.278Z,566.00
2023-05-13T00:05:54.348Z,563.00
2023-05-13T00:06:54.329Z,568.00
2023-05-13T00:07:54.325Z,561.00
2023-05-13T00:08:54.334Z,563.00
2023-05-13T00:09:54.375Z,565.00
2023-05-13T00:10:54.377Z,562.00
2023-05-13T00:11:54.354Z,570.00
2023-05-13T00:12:54.398Z,565.00
2023-05-13T00:13:54.432Z,567.00
2023-05-13T00:14:54.372Z,560.00
2023-05-13T00:15:54.430Z,563.00
2023-05-13T00:16:54.388Z,568.00
2023-05-13T00:17:54.391Z,564.00
2023-05-13T00:18:54.393Z,566.00
2023-05-13T00:19:54.399Z,563.00
2023-05-13T00:20:54.403Z,564.00
2023-05-13T00:21:54.403Z,561.00
2023-05-13T00:22:54.634Z,565.00
2023-05-13T00:23:54.364Z,563.00
2023-05-13T00:24:54.400Z,561.00
2023-05-13T00:25:54.376Z,560.00
2023-05-13T00:26:54.363Z,565.00
2023-05-13T00:27:54.426Z,559.00
2023-05-13T00:28:54.379Z,561.00
2023-05-13T00:29:54.388Z,560.00
2023-05-13T00:30:54.367Z,562.00
2023-05-13T00:31:54.441Z,564.00
2023-05-13T00:32:54.408Z,561.00
2023-05-13T00:33:54.385Z,559.00
2023-05-13T00:34:54.383Z,559.00
2023-05-13T00:35:54.361Z,560.00
2023-05-13T00:36:54.364Z,561.00
2023-05-13T00:37:54.360Z,559.00
2023-05-13T00:38:54.375Z,563.00
2023-05-13T00:39:54.429Z,558.00
2023-05-13T00:40:54.387Z,561.00
2023-05-13T00:41:54.397Z,563.00
2023-05-13T00:42:54.643Z,558.00
2023-05-13T00:43:54.411Z,560.00
2023-05-13T00:44:54.381Z,555.00
2023-05-13T00:45:54.499Z,563.00
2023-05-13T00:46:54.391Z,561.00
2023-05-13T00:47:54.456Z,562.00
2023-05-13T00:48:54.406Z,558.00
2023-05-13T00:49:54.370Z,563.00
2023-05-13T00:50:54.400Z,554.00
2023-05-13T00:51:54.388Z,566.00
2023-05-13T00:52:54.432Z,562.00
2023-05-13T00:53:54.374Z,558.00
2023-05-13T00:54:54.387Z,562.00
2023-05-13T00:55:54.393Z,565.00
2023-05-13T00:56:54.396Z,555.00
2023-05-13T00:57:54.373Z,562.00
2023-05-13T00:58:54.358Z,561.00
2023-05-13T00:59:54.373Z,557.00
2023-05-13T01:00:54.443Z,554.00
2023-05-13T01:01:54.382Z,558.00
2023-05-13T01:02:54.512Z,562.00
2023-05-13T01:03:54.339Z,560.00
2023-05-13T01:04:54.366Z,556.00
2023-05-13T01:05:54.362Z,560.00
2023-05-13T01:06:54.333Z,559.00
2023-05-13T01:07:54.384Z,556.00
2023-05-13T01:08:54.306Z,558.00
2023-05-13T01:09:54.293Z,562.00
2023-05-13T01:10:54.286Z,562.00
2023-05-13T01:11:54.288Z,560.00
2023-05-13T01:12:54.302Z,561.00
2023-05-13T01:13:54.312Z,560.00
2023-05-13T01:14:54.266Z,560.00
2023-05-13T01:15:54.277Z,561.00
2023-05-13T01:16:54.338Z,558.00
2023-05-13T01:17:54.349Z,557.00
2023-05-13T01:18:54.306Z,559.00
2023-05-13T01:19:54.278Z,558.00
2023-05-13T01:20:54.284Z,558.00
2023-05-13T01:21:54.265Z,561.00
2023-05-13T01:22:54.264Z,556.00
2023-05-13T01:23:54.279Z,554.00
2023-05-13T01:24:54.253Z,563.00
2023-05-13T01:25:54.245Z,559.00
2023-05-13T01:26:54.228Z,554.00
2023-05-13T01:27:54.269Z,555.00
2023-05-13T01:28:54.243Z,557.00
2023-05-13T01:29:54.260Z,556.00
2023-05-13T01:30:54.228Z,554.00
2023-05-13T01:31:54.272Z,558.00
2023-05-13T01:32:54.291Z,558.00
2023-05-13T01:33:54.240Z,556.00
2023-05-13T01:34:54.253Z,556.00
2023-05-13T01:35:54.232Z,553.00
2023-05-13T01:36:54.238Z,552.00
2023-05-13T01:37:54.240Z,554.00
2023-05-13T01:38:54.224Z,554.00
2023-05-13T01:39:54.211Z,556.00
2023-05-13T01:40:54.176Z,555.00
2023-05-13T01:41:54.220Z,551.00
2023-05-13T01:42:54.213Z,553.00
2023-05-13T01:43:54.186Z,555.00
2023-05-13T01:44:54.184Z,554.00
2023-05-13T01:45:54.211Z,548.00
2023-05-13T01:46:54.237Z,555.00
2023-05-13T01:47:54.201Z,554.00
2023-05-13T01:48:54.171Z,557.00
2023-05-13T01:49:54.174Z,549.00
2023-05-13T01:50:54.148Z,555.00
2023-05-13T01:51:54.189Z,553.00
2023-05-13T01:52:54.170Z,554.00
2023-05-13T01:53:54.171Z,554.00
2023-05-13T01:54:54.199Z,553.00
2023-05-13T01:55:54.156Z,552.00
2023-05-13T01:56:54.171Z,553.00
2023-05-13T01:57:54.688Z,558.00
2023-05-13T01:58:54.169Z,555.00
2023-05-13T01:59:54.169Z,553.00
2023-05-13T02:00:54.163Z,552.00
2023-05-13T02:01:54.188Z,550.00
2023-05-13T02:02:54.255Z,552.00
2023-05-13T02:03:54.214Z,559.00
2023-05-13T02:04:54.159Z,552.00
2023-05-13T02:05:54.124Z,556.00
2023-05-13T02:06:54.166Z,547.00
2023-05-13T02:07:54.147Z,551.00
2023-05-13T02:08:54.100Z,555.00
2023-05-13T02:09:54.127Z,551.00
2023-05-13T02:10:54.138Z,553.00
2023-05-13T02:11:54.091Z,550.00
2023-05-13T02:12:54.106Z,547.00
2023-05-13T02:13:54.103Z,550.00
2023-05-13T02:14:54.122Z,551.00
2023-05-13T02:15:54.136Z,553.00
2023-05-13T02:16:54.186Z,552.00
2023-05-13T02:17:54.143Z,553.00
2023-05-13T02:18:54.224Z,550.00
2023-05-13T02:19:54.077Z,548.00
2023-05-13T02:20:54.113Z,549.00
2023-05-13T02:21:54.105Z,549.00
2023-05-13T02:22:54.063Z,547.00
2023-05-13T02:23:54.080Z,547.00
2023-05-13T02:24:54.085Z,552.00
2023-05-13T02:25:54.097Z,553.00
2023-05-13T02:26:54.073Z,553.00
2023-05-13T02:27:54.168Z,550.00
2023-05-13T02:28:54.104Z,553.00
2023-05-13T02:29:54.102Z,552.00
2023-05-13T02:30:54.086Z,547.00
2023-05-13T02:31:54.134Z,554.00
2023-05-13T02:32:54.222Z,551.00
2023-05-13T02:33:54.055Z,547.00
2023-05-13T02:34:54.075Z,550.00
2023-05-13T02:35:54.071Z,549.00
2023-05-13T02:36:54.029Z,547.00
2023-05-13T02:37:54.193Z,552.00
2023-05-13T02:38:54.050Z,550.00
2023-05-13T02:39:54.039Z,544.00
2023-05-13T02:40:54.072Z,545.00
2023-05-13T02:41:54.029Z,549.00
2023-05-13T02:42:54.195Z,546.00
2023-05-13T02:43:54.054Z,551.00
2023-05-13T02:44:54.016Z,549.00
2023-05-13T02:45:54.033Z,548.00
2023-05-13T02:46:54.052Z,541.00
2023-05-13T02:47:54.222Z,543.00
2023-05-13T02:48:54.033Z,542.00
2023-05-13T02:49:54.028Z,545.00
2023-05-13T02:50:54.023Z,547.00
2023-05-13T02:51:54.035Z,542.00
2023-05-13T02:52:54.203Z,546.00
2023-05-13T02:53:54.016Z,542.00
2023-05-13T02:54:54.054Z,550.00
2023-05-13T02:55:53.996Z,548.00
2023-05-13T02:56:54.010Z,544.00
2023-05-13T02:57:54.217Z,544.00
2023-05-13T02:58:54.017Z,545.00
2023-05-13T02:59:54.026Z,545.00
2023-05-13T03:00:54.052Z,546.00
2023-05-13T03:01:54.014Z,550.00
2023-05-13T03:02:54.071Z,545.00
2023-05-13T03:03:54.205Z,541.00
2023-05-13T03:04:54.005Z,548.00
2023-05-13T03:05:54.007Z,550.00
2023-05-13T03:06:54.012Z,540.00
2023-05-13T03:07:53.988Z,543.00
2023-05-13T03:08:53.999Z,542.00
2023-05-13T03:09:54.013Z,547.00
2023-05-13T03:10:53.959Z,544.00
2023-05-13T03:11:53.953Z,551.00
2023-05-13T03:12:53.990Z,545.00
2023-05-13T03:13:53.992Z,540.00
2023-05-13T03:14:53.968Z,543.00
2023-05-13T03:15:53.980Z,544.00
2023-05-13T03:16:53.948Z,544.00
2023-05-13T03:17:53.997Z,550.00
2023-05-13T03:18:54.013Z,546.00
2023-05-13T03:19:53.976Z,544.00
2023-05-13T03:20:54.549Z,542.00
2023-05-13T03:21:53.964Z,549.00
2023-05-13T03:22:53.993Z,548.00
2023-05-13T03:23:53.967Z,547.00
2023-05-13T03:24:53.934Z,543.00
2023-05-13T03:25:53.923Z,540.00
2023-05-13T03:26:53.956Z,541.00
2023-05-13T03:27:53.957Z,541.00
2023-05-13T03:28:53.959Z,541.00
2023-05-13T03:29:53.968Z,546.00
2023-05-13T03:30:53.979Z,538.00
2023-05-13T03:31:53.987Z,544.00
2023-05-13T03:32:54.027Z,538.00
2023-05-13T03:33:53.961Z,546.00
2023-05-13T03:34:53.920Z,540.00
2023-05-13T03:35:53.960Z,546.00
2023-05-13T03:36:53.906Z,541.00
2023-05-13T03:37:53.918Z,544.00
2023-05-13T03:38:54.111Z,539.00
2023-05-13T03:39:53.899Z,540.00
2023-05-13T03:40:53.894Z,540.00
2023-05-13T03:41:53.906Z,542.00
2023-05-13T03:42:53.925Z,540.00
2023-05-13T03:43:53.889Z,535.00
2023-05-13T03:44:53.904Z,540.00
2023-05-13T03:45:53.881Z,542.00
2023-05-13T03:46:53.958Z,538.00
2023-05-13T03:47:53.910Z,542.00
2023-05-13T03:48:53.905Z,543.00
2023-05-13T03:49:53.940Z,538.00
2023-05-13T03:50:53.881Z,539.00
2023-05-13T03:51:53.884Z,536.00
2023-05-13T03:52:53.843Z,540.00
2023-05-13T03:53:53.893Z,542.00
2023-05-13T03:54:53.879Z,538.00
2023-05-13T03:55:53.875Z,539.00
2023-05-13T03:56:53.865Z,538.00
2023-05-13T03:57:53.876Z,539.00
2023-05-13T03:58:54.238Z,539.00
2023-05-13T03:59:53.870Z,536.00
2023-05-13T04:00:53.871Z,539.00
2023-05-13T04:01:53.895Z,540.00
2023-05-13T04:02:53.922Z,536.00
2023-05-13T04:03:53.882Z,543.00
2023-05-13T04:04:53.896Z,534.00
2023-05-13T04:05:53.887Z,538.00
2023-05-13T04:06:53.913Z,539.00
2023-05-13T04:07:53.861Z,534.00
2023-05-13T04:08:53.833Z,537.00
2023-05-13T04:09:53.839Z,533.00
2023-05-13T04:10:53.845Z,537.00
2023-05-13T04:11:53.825Z,533.00
2023-05-13T04:12:53.821Z,535.00
2023-05-13T04:13:53.840Z,536.00
2023-05-13T04:14:53.811Z,535.00
2023-05-13T04:15:53.818Z,534.00
2023-05-13T04:16:53.839Z,539.00
2023-05-13T04:17:53.871Z,537.00
2023-05-13T04:18:54.266Z,534.00
2023-05-13T04:19:53.824Z,535.00
2023-05-13T04:20:53.805Z,538.00
2023-05-13T04:21:53.827Z,532.00
2023-05-13T04:22:53.788Z,538.00
2023-05-13T04:23:53.792Z,538.00
2023-05-13T04:24:53.797Z,538.00
2023-05-13T04:25:53.826Z,540.00
2023-05-13T04:26:53.821Z,531.00
2023-05-13T04:27:53.839Z,538.00
2023-05-13T04:28:53.800Z,537.00
2023-05-13T04:29:53.809Z,537.00
2023-05-13T04:30:53.810Z,534.00
2023-05-13T04:31:53.861Z,531.00
2023-05-13T04:32:53.857Z,532.00
2023-05-13T04:33:53.806Z,534.00
2023-05-13T04:34:53.827Z,535.00
2023-05-13T04:35:53.832Z,534.00
2023-05-13T04:36:53.790Z,538.00
2023-05-13T04:37:53.808Z,536.00
2023-05-13T04:38:53.768Z,531.00
2023-05-13T04:39:53.781Z,533.00
2023-05-13T04:40:53.782Z,539.00
2023-05-13T04:41:53.749Z,531.00
2023-05-13T04:42:53.784Z,534.00
2023-05-13T04:43:53.774Z,531.00
2023-05-13T04:44:53.786Z,534.00
2023-05-13T04:45:53.805Z,538.00
2023-05-13T04:46:53.769Z,533.00
2023-05-13T04:47:55.531Z,529.00
2023-05-13T04:48:53.729Z,538.00
2023-05-13T04:49:53.746Z,539.00
2023-05-13T04:50:53.728Z,535.00
2023-05-13T04:51:53.716Z,534.00
2023-05-13T04:52:53.723Z,529.00
2023-05-13T04:53:53.725Z,527.00
2023-05-13T04:54:53.669Z,531.00
2023-05-13T04:55:53.685Z,533.00
2023-05-13T04:56:53.687Z,534.00
2023-05-13T04:57:53.663Z,532.00
2023-05-13T04:58:53.673Z,531.00
2023-05-13T04:59:53.659Z,537.00
2023-05-13T05:00:53.637Z,533.00
2023-05-13T05:01:53.650Z,530.00
2023-05-13T05:02:53.730Z,531.00
2023-05-13T05:03:53.718Z,532.00
2023-05-13T05:04:53.615Z,531.00
2023-05-13T05:05:53.625Z,529.00
2023-05-13T05:06:53.593Z,529.00
2023-05-13T05:07:53.593Z,535.00
2023-05-13T05:08:53.746Z,533.00
2023-05-13T05:09:53.559Z,527.00
2023-05-13T05:10:53.585Z,538.00
2023-05-13T05:11:53.574Z,528.00
2023-05-13T05:12:53.553Z,531.00
2023-05-13T05:13:53.727Z,532.00
2023-05-13T05:14:53.551Z,532.00
2023-05-13T05:15:53.558Z,532.00
2023-05-13T05:16:53.571Z,530.00
2023-05-13T05:17:53.644Z,526.00
2023-05-13T05:18:53.865Z,531.00
2023-05-13T05:19:53.527Z,528.00
2023-05-13T05:20:53.522Z,528.00
2023-05-13T05:21:53.513Z,533.00
2023-05-13T05:22:53.492Z,531.00
2023-05-13T05:23:53.504Z,526.00
2023-05-13T05:24:53.479Z,533.00
2023-05-13T05:26:00.812Z,530.00
2023-05-13T05:26:54.492Z,531.00
2023-05-13T05:27:53.481Z,530.00
2023-05-13T05:28:53.769Z,532.00
2023-05-13T05:29:53.445Z,532.00
2023-05-13T05:30:53.455Z,533.00
2023-05-13T05:31:53.511Z,534.00
2023-05-13T05:32:53.484Z,527.00
2023-05-13T05:33:53.467Z,529.00
2023-05-13T05:34:53.421Z,533.00
2023-05-13T05:35:53.419Z,529.00
2023-05-13T05:36:53.380Z,531.00
2023-05-13T05:37:53.410Z,527.00
2023-05-13T05:38:53.380Z,534.00
2023-05-13T05:39:53.402Z,529.00
2023-05-13T05:40:53.405Z,529.00
2023-05-13T05:41:53.373Z,527.00
2023-05-13T05:42:53.351Z,530.00
2023-05-13T05:43:53.782Z,526.00
2023-05-13T05:44:53.348Z,526.00
2023-05-13T05:45:53.395Z,533.00
2023-05-13T05:46:53.320Z,528.00
2023-05-13T05:47:53.381Z,527.00
2023-05-13T05:48:53.778Z,523.00
2023-05-13T05:49:53.323Z,526.00
2023-05-13T05:50:53.334Z,531.00
2023-05-13T05:51:53.281Z,531.00
2023-05-13T05:52:53.291Z,533.00
2023-05-13T05:53:53.753Z,528.00
2023-05-13T05:54:53.291Z,527.00
2023-05-13T05:55:53.326Z,526.00
2023-05-13T05:56:53.253Z,527.00
2023-05-13T05:57:53.274Z,526.00
2023-05-13T05:58:53.257Z,530.00
2023-05-13T05:59:53.212Z,524.00
2023-05-13T06:00:53.217Z,530.00
2023-05-13T06:01:53.228Z,529.00
2023-05-13T06:02:53.271Z,530.00
2023-05-13T06:03:54.913Z,532.00
2023-05-13T06:04:53.286Z,533.00
2023-05-13T06:05:53.195Z,532.00
2023-05-13T06:06:53.258Z,529.00
2023-05-13T06:07:53.239Z,530.00
2023-05-13T06:08:53.263Z,525.00
2023-05-13T06:09:53.258Z,528.00
2023-05-13T06:10:53.244Z,531.00
2023-05-13T06:11:53.242Z,529.00
2023-05-13T06:12:53.248Z,534.00
2023-05-13T06:13:53.288Z,525.00
2023-05-13T06:14:53.231Z,530.00
2023-05-13T06:15:53.303Z,529.00
2023-05-13T06:16:54.954Z,526.00
2023-05-13T06:17:53.273Z,522.00
2023-05-13T06:18:53.266Z,527.00
2023-05-13T06:19:53.281Z,526.00
2023-05-13T06:20:53.286Z,528.00
2023-05-13T06:21:53.262Z,525.00
2023-05-13T06:22:53.287Z,524.00
2023-05-13T06:23:53.797Z,525.00
2023-05-13T06:24:53.279Z,528.00
2023-05-13T06:25:53.287Z,526.00
2023-05-13T06:26:53.302Z,523.00
2023-05-13T06:27:53.292Z,531.00
2023-05-13T06:28:53.800Z,529.00
2023-05-13T06:29:53.279Z,529.00
2023-05-13T06:30:53.342Z,526.00
2023-05-13T06:31:53.321Z,526.00
2023-05-13T06:33:01.023Z,528.00
2023-05-13T06:33:54.343Z,528.00
2023-05-13T06:34:55.709Z,526.00
2023-05-13T06:35:53.544Z,527.00
2023-05-13T06:36:53.510Z,530.00
2023-05-13T06:37:53.494Z,534.00
2023-05-13T06:38:53.578Z,530.00
2023-05-13T06:39:53.547Z,527.00
2023-05-13T06:40:53.520Z,527.00
2023-05-13T06:41:53.538Z,523.00
2023-05-13T06:42:53.536Z,523.00
2023-05-13T06:43:53.789Z,524.00
2023-05-13T06:44:53.549Z,529.00
2023-05-13T06:45:53.556Z,528.00
2023-05-13T06:46:53.578Z,526.00
2023-05-13T06:47:53.740Z,523.00
2023-05-13T06:48:53.814Z,523.00
2023-05-13T06:49:53.560Z,526.00
2023-05-13T06:50:53.592Z,529.00
2023-05-13T06:51:53.559Z,524.00
2023-05-13T06:52:53.606Z,528.00
2023-05-13T06:53:53.587Z,526.00
2023-05-13T06:54:53.820Z,524.00
2023-05-13T06:55:53.585Z,529.00
2023-05-13T06:56:53.589Z,527.00
2023-05-13T06:57:53.607Z,526.00
2023-05-13T06:58:53.654Z,531.00
2023-05-13T06:59:53.622Z,523.00
2023-05-13T07:00:53.676Z,523.00
2023-05-13T07:01:53.640Z,523.00
2023-05-13T07:02:53.651Z,527.00
2023-05-13T07:03:53.643Z,527.00
2023-05-13T07:04:53.653Z,525.00
2023-05-13T07:05:53.652Z,525.00
2023-05-13T07:06:53.664Z,524.00
2023-05-13T07:07:53.691Z,528.00
2023-05-13T07:08:53.718Z,528.00
2023-05-13T07:09:53.825Z,528.00
2023-05-13T07:10:53.797Z,527.00
2023-05-13T07:11:53.807Z,530.00
2023-05-13T07:12:53.801Z,528.00
2023-05-13T07:13:53.785Z,526.00
2023-05-13T07:14:53.813Z,526.00
2023-05-13T07:15:53.771Z,527.00
2023-05-13T07:16:53.815Z,525.00
2023-05-13T07:17:53.847Z,522.00
2023-05-13T07:18:53.831Z,528.00
2023-05-13T07:19:53.781Z,525.00
2023-05-13T07:20:53.741Z,527.00
2023-05-13T07:21:53.807Z,524.00
2023-05-13T07:22:53.763Z,524.00
2023-05-13T07:23:53.770Z,530.00
2023-05-13T07:24:53.742Z,527.00
2023-05-13T07:25:53.765Z,527.00
2023-05-13T07:26:53.731Z,525.00
2023-05-13T07:27:53.743Z,524.00
2023-05-13T07:28:53.750Z,529.00
2023-05-13T07:29:53.754Z,524.00
2023-05-13T07:30:53.819Z,529.00
2023-05-13T07:31:53.771Z,528.00
2023-05-13T07:32:54.101Z,525.00
2023-05-13T07:33:53.761Z,524.00
2023-05-13T07:34:53.808Z,521.00
2023-05-13T07:35:53.767Z,528.00
2023-05-13T07:36:53.766Z,524.00
2023-05-13T07:37:53.750Z,527.00
2023-05-13T07:38:53.728Z,525.00
2023-05-13T07:39:53.776Z,521.00
2023-05-13T07:40:53.737Z,524.00
2023-05-13T07:41:53.768Z,526.00
2023-05-13T07:42:53.796Z,525.00
2023-05-13T07:43:53.770Z,526.00
2023-05-13T07:44:53.764Z,526.00
2023-05-13T07:45:53.778Z,524.00
2023-05-13T07:46:53.886Z,522.00
2023-05-13T07:47:53.794Z,528.00
2023-05-13T07:48:53.750Z,524.00
2023-05-13T07:49:53.816Z,531.00
2023-05-13T07:50:53.731Z,526.00
2023-05-13T07:51:53.739Z,525.00
2023-05-13T07:52:53.748Z,524.00
2023-05-13T07:53:53.773Z,525.00
2023-05-13T07:54:53.728Z,526.00
2023-05-13T07:55:53.786Z,524.00
2023-05-13T07:56:53.799Z,526.00
2023-05-13T07:57:53.764Z,524.00
2023-05-13T07:58:53.793Z,527.00
2023-05-13T07:59:53.794Z,522.00
2023-05-13T08:00:53.755Z,523.00
2023-05-13T08:01:53.742Z,527.00
2023-05-13T08:02:53.797Z,525.00
2023-05-13T08:03:53.881Z,524.00
2023-05-13T08:04:53.775Z,525.00
2023-05-13T08:05:53.781Z,526.00
2023-05-13T08:06:54.332Z,530.00
2023-05-13T08:07:53.736Z,522.00
2023-05-13T08:08:53.738Z,524.00
2023-05-13T08:09:53.842Z,529.00
2023-05-13T08:10:53.745Z,521.00
2023-05-13T08:11:53.753Z,529.00
2023-05-13T08:12:53.758Z,521.00
2023-05-13T08:13:53.710Z,529.00
2023-05-13T08:14:53.844Z,521.00
2023-05-13T08:15:53.731Z,528.00
2023-05-13T08:16:53.738Z,525.00
2023-05-13T08:17:53.795Z,521.00
2023-05-13T08:18:53.740Z,526.00
2023-05-13T08:19:53.817Z,523.00
2023-05-13T08:20:53.714Z,528.00
2023-05-13T08:21:53.720Z,523.00
2023-05-13T08:22:53.734Z,525.00
2023-05-13T08:23:53.745Z,525.00
2023-05-13T08:24:53.834Z,524.00
2023-05-13T08:25:53.723Z,523.00
2023-05-13T08:26:53.761Z,525.00
2023-05-13T08:27:53.700Z,528.00
2023-05-13T08:28:55.053Z,521.00
2023-05-13T08:29:53.840Z,525.00
2023-05-13T08:30:53.782Z,523.00
2023-05-13T08:31:53.874Z,527.00
2023-05-13T08:32:53.764Z,524.00
2023-05-13T08:33:53.730Z,522.00
2023-05-13T08:34:53.731Z,524.00
2023-05-13T08:35:53.714Z,525.00
2023-05-13T08:36:53.714Z,522.00
2023-05-13T08:37:53.697Z,525.00
2023-05-13T08:38:53.738Z,526.00
2023-05-13T08:39:53.745Z,525.00
2023-05-13T08:40:53.724Z,523.00
2023-05-13T08:41:53.768Z,525.00
2023-05-13T08:42:53.789Z,524.00
2023-05-13T08:43:53.799Z,526.00
2023-05-13T08:44:53.852Z,530.00
2023-05-13T08:45:53.877Z,529.00
2023-05-13T08:46:53.888Z,528.00
2023-05-13T08:47:54.014Z,529.00
2023-05-13T08:48:53.907Z,532.00
2023-05-13T08:49:54.365Z,525.00
2023-05-13T08:50:53.972Z,525.00
2023-05-13T08:51:53.987Z,527.00
2023-05-13T08:52:54.021Z,525.00
2023-05-13T08:53:54.048Z,530.00
2023-05-13T08:54:54.051Z,527.00
2023-05-13T08:55:54.091Z,524.00
2023-05-13T08:56:54.089Z,527.00
2023-05-13T08:57:54.135Z,527.00
2023-05-13T08:58:54.184Z,529.00
2023-05-13T08:59:54.353Z,530.00
2023-05-13T09:00:54.283Z,530.00
2023-05-13T09:01:54.329Z,530.00
2023-05-13T09:02:54.365Z,531.00
2023-05-13T09:03:54.459Z,534.00
2023-05-13T09:04:54.541Z,533.00
2023-05-13T09:05:54.554Z,532.00
2023-05-13T09:06:54.608Z,531.00
2023-05-13T09:07:54.653Z,531.00
2023-05-13T09:08:54.703Z,530.00
2023-05-13T09:09:54.769Z,527.00
2023-05-13T09:10:54.838Z,531.00
2023-05-13T09:11:54.892Z,536.00
2023-05-13T09:12:54.981Z,533.00
2023-05-13T09:13:55.009Z,532.00
2023-05-13T09:14:55.317Z,532.00
2023-05-13T09:15:55.202Z,534.00
2023-05-13T09:16:55.204Z,528.00
2023-05-13T09:17:55.346Z,528.00
2023-05-13T09:18:55.419Z,530.00
2023-05-13T09:19:55.464Z,530.00
2023-05-13T09:20:55.435Z,529.00
2023-05-13T09:21:55.500Z,534.00
2023-05-13T09:22:55.577Z,534.00
2023-05-13T09:23:55.641Z,536.00
2023-05-13T09:24:55.704Z,533.00
2023-05-13T09:25:55.773Z,530.00
2023-05-13T09:26:55.854Z,530.00
2023-05-13T09:27:55.876Z,537.00
2023-05-13T09:28:55.990Z,531.00
2023-05-13T09:29:56.033Z,531.00
2023-05-13T09:30:56.214Z,539.00
2023-05-13T09:31:56.155Z,538.00
2023-05-13T09:32:56.262Z,537.00
2023-05-13T09:33:56.262Z,531.00
2023-05-13T09:34:56.339Z,534.00
2023-05-13T09:35:56.375Z,533.00
2023-05-13T09:36:56.444Z,534.00
2023-05-13T09:37:56.510Z,534.00
2023-05-13T09:38:56.551Z,536.00
2023-05-13T09:39:56.870Z,534.00
2023-05-13T09:40:56.730Z,534.00
2023-05-13T09:41:56.749Z,534.00
2023-05-13T09:42:56.815Z,537.00
2023-05-13T09:43:56.876Z,536.00
2023-05-13T09:44:57.361Z,538.00
2023-05-13T09:45:56.992Z,536.00
2023-05-13T09:46:57.082Z,539.00
2023-05-13T09:47:57.339Z,534.00
2023-05-13T09:48:57.289Z,535.00
2023-05-13T09:49:57.375Z,530.00
2023-05-13T09:50:57.278Z,536.00
2023-05-13T09:51:57.366Z,533.00
2023-05-13T09:52:57.380Z,539.00
2023-05-13T09:53:57.485Z,535.00
2023-05-13T09:54:57.840Z,537.00
2023-05-13T09:55:57.559Z,530.00
2023-05-13T09:56:57.614Z,533.00
2023-05-13T09:57:57.706Z,533.00
2023-05-13T09:58:57.765Z,532.00
2023-05-13T09:59:57.850Z,533.00
2023-05-13T10:00:57.868Z,536.00
2023-05-13T10:01:57.892Z,533.00
2023-05-13T10:02:57.989Z,534.00
2023-05-13T10:03:58.021Z,533.00
2023-05-13T10:04:58.349Z,537.00
2023-05-13T10:05:58.720Z,534.00
2023-05-13T10:06:58.174Z,537.00
2023-05-13T10:07:58.220Z,533.00
2023-05-13T10:08:58.323Z,532.00
2023-05-13T10:09:58.357Z,535.00
2023-05-13T10:10:58.379Z,536.00
2023-05-13T10:11:58.456Z,536.00
2023-05-13T10:12:58.481Z,538.00
2023-05-13T10:13:58.524Z,540.00
2023-05-13T10:14:58.611Z,536.00
2023-05-13T10:15:58.679Z,531.00
2023-05-13T10:16:58.805Z,539.00
2023-05-13T10:17:58.888Z,538.00
2023-05-13T10:18:58.878Z,536.00
2023-05-13T10:19:58.852Z,533.00
2023-05-13T10:20:58.895Z,539.00
2023-05-13T10:21:58.929Z,536.00
2023-05-13T10:22:59.023Z,536.00
2023-05-13T10:23:59.047Z,532.00
2023-05-13T10:24:59.080Z,535.00
2023-05-13T10:25:59.136Z,542.00
2023-05-13T10:26:59.200Z,539.00
2023-05-13T10:27:59.201Z,535.00
2023-05-13T10:28:59.253Z,537.00
2023-05-13T10:30:01.140Z,539.00
2023-05-13T10:30:59.270Z,544.00
2023-05-13T10:31:59.309Z,541.00
2023-05-13T10:32:59.309Z,535.00
2023-05-13T10:33:59.312Z,538.00
2023-05-13T10:34:59.403Z,539.00
2023-05-13T10:35:59.214Z,535.00
2023-05-13T10:36:59.223Z,542.00
2023-05-13T10:37:59.227Z,535.00
2023-05-13T10:38:59.196Z,537.00
2023-05-13T10:39:59.202Z,534.00
2023-05-13T10:40:59.220Z,537.00
2023-05-13T10:41:59.215Z,536.00
2023-05-13T10:42:59.205Z,533.00
2023-05-13T10:43:59.172Z,531.00
2023-05-13T10:44:59.196Z,534.00
2023-05-13T10:45:59.415Z,534.00
2023-05-13T10:46:59.157Z,533.00
2023-05-13T10:47:59.206Z,530.00
2023-05-13T10:48:59.189Z,532.00
2023-05-13T10:49:59.183Z,533.00
2023-05-13T10:50:59.152Z,532.00
2023-05-13T10:51:59.151Z,532.00
2023-05-13T10:52:59.155Z,528.00
2023-05-13T10:53:59.173Z,529.00
2023-05-13T10:54:59.148Z,533.00
2023-05-13T10:55:59.374Z,533.00
2023-05-13T10:56:59.211Z,528.00
2023-05-13T10:57:59.110Z,532.00
2023-05-13T10:58:59.120Z,531.00
2023-05-13T10:59:59.070Z,531.00
2023-05-13T11:00:59.091Z,529.00
2023-05-13T11:01:59.153Z,529.00
2023-05-13T11:02:59.144Z,532.00
2023-05-13T11:03:59.311Z,529.00
2023-05-13T11:04:59.129Z,528.00
2023-05-13T11:05:59.197Z,529.00
2023-05-13T11:06:59.249Z,530.00
2023-05-13T11:07:59.281Z,532.00
2023-05-13T11:08:59.320Z,531.00
2023-05-13T11:09:59.350Z,529.00
2023-05-13T11:10:59.866Z,526.00
2023-05-13T11:11:59.442Z,525.00
2023-05-13T11:12:59.498Z,527.00
2023-05-13T11:13:59.566Z,522.00
2023-05-13T11:14:59.626Z,528.00
2023-05-13T11:15:59.712Z,525.00
2023-05-13T11:16:59.693Z,526.00
2023-05-13T11:17:59.795Z,529.00
2023-05-13T11:18:59.799Z,525.00
2023-05-13T11:19:59.803Z,525.00
2023-05-13T11:20:59.888Z,526.00
2023-05-13T11:21:59.924Z,529.00
2023-05-13T11:22:59.975Z,525.00
2023-05-13T11:24:00.015Z,521.00
2023-05-13T11:25:00.155Z,528.00
2023-05-13T11:26:00.132Z,525.00
2023-05-13T11:27:00.196Z,524.00
2023-05-13T11:28:00.254Z,519.00
2023-05-13T11:29:00.330Z,526.00
2023-05-13T11:30:00.369Z,521.00
2023-05-13T11:31:00.400Z,521.00
2023-05-13T11:32:01.097Z,524.00
2023-05-13T11:33:00.556Z,525.00
2023-05-13T11:34:00.556Z,524.00
2023-05-13T11:35:00.598Z,517.00
2023-05-13T11:36:00.912Z,523.00
2023-05-13T11:37:00.706Z,521.00
2023-05-13T11:38:00.781Z,525.00
2023-05-13T11:39:00.834Z,518.00
2023-05-13T11:40:00.844Z,514.00
2023-05-13T11:41:01.422Z,522.00
2023-05-13T11:42:00.960Z,524.00
2023-05-13T11:43:00.994Z,526.00
2023-05-13T11:44:01.073Z,517.00
2023-05-13T11:45:01.101Z,521.00
2023-05-13T11:46:01.417Z,522.00
2023-05-13T11:47:01.239Z,521.00
2023-05-13T11:48:01.272Z,517.00
2023-05-13T11:49:01.306Z,520.00
2023-05-13T11:50:01.381Z,520.00
2023-05-13T11:51:01.944Z,517.00
2023-05-13T11:52:01.452Z,516.00
2023-05-13T11:53:01.552Z,521.00
2023-05-13T11:54:01.601Z,519.00
2023-05-13T11:55:01.643Z,521.00
2023-05-13T11:56:01.707Z,522.00
2023-05-13T11:57:01.750Z,519.00
2023-05-13T11:58:01.794Z,522.00
2023-05-13T11:59:01.820Z,521.00
2023-05-13T12:00:01.999Z,519.00
2023-05-13T12:01:02.426Z,516.00
2023-05-13T12:02:02.078Z,524.00
2023-05-13T12:03:02.246Z,523.00
2023-05-13T12:04:02.134Z,521.00
2023-05-13T12:05:02.264Z,525.00
2023-05-13T12:06:02.419Z,518.00
2023-05-13T12:07:02.261Z,524.00
2023-05-13T12:08:02.372Z,523.00
2023-05-13T12:09:02.349Z,522.00
2023-05-13T12:10:02.384Z,524.00
2023-05-13T12:11:02.903Z,521.00
2023-05-13T12:12:02.471Z,519.00
2023-05-13T12:13:02.563Z,523.00
2023-05-13T12:14:02.573Z,522.00
2023-05-13T12:15:02.617Z,517.00
2023-05-13T12:16:02.725Z,517.00
2023-05-13T12:17:02.695Z,524.00
2023-05-13T12:18:02.786Z,517.00
2023-05-13T12:19:02.867Z,521.00
2023-05-13T12:20:02.872Z,517.00
2023-05-13T12:21:02.934Z,522.00
2023-05-13T12:22:04.770Z,522.00
2023-05-13T12:23:03.159Z,522.00
2023-05-13T12:24:03.185Z,522.00
2023-05-13T12:25:03.246Z,523.00
2023-05-13T12:26:03.271Z,519.00
2023-05-13T12:27:03.313Z,519.00
2023-05-13T12:28:03.365Z,519.00
2023-05-13T12:29:03.451Z,520.00